Aviation Digital Data Service (ADDS)

Output produced by METARs form (0800 UTC 23 July 2018)
found at http://www.aviationweather.gov/adds/metars/
 
KLNS 230753Z AUTO 14007KT 10SM OVC014 24/24 A2992 RMK AO2 LTG DSNT SW-N SLP130 T02440239
KLNS 230750Z AUTO 14008KT 10SM OVC014 24/24 A2992 RMK AO2 LTG DSNT SW-NW
KLNS 230716Z AUTO 13009KT 9SM OVC015 24/24 A2991 RMK AO2 LTG DSNT SW-N T02440239
KLNS 230653Z AUTO 13011KT 8SM VCTS OVC013 24/24 A2990 RMK AO2 LTG DSNT SW-N RAE39 TSB20E36 SLP122 P0002 T02440239
KLNS 230642Z AUTO 12012KT 9SM VCTS OVC011 24/24 A2991 RMK AO2 LTG DSNT SW-NW RAE39 TSB20E36 P0002 T02440239
KLNS 230626Z AUTO 09009KT 5SM -TSRA BR OVC011 24/24 A2990 RMK AO2 LTG DSNT W TSB20 P0002 T02440239
KLNS 230553Z AUTO 08005KT 6SM -RA BR FEW005 OVC010 23/23 A2992 RMK AO2 LTG DSNT S AND SW RAB21 SLP128 P0003 60016 T02330233 10239 20217 58007
KLNS 230533Z AUTO 11003KT 6SM -RA BR FEW006 BKN010 OVC015 23/23 A2993 RMK AO2 LTG DSNT SW RAB21 CIG 008V013 P0000 T02330228
KLNS 230500Z AUTO 07004KT 9SM BKN010 OVC014 23/22 A2995 RMK AO2 CIG 008V011 T02280222
KLNS 230453Z AUTO 07004KT 9SM BKN008 BKN016 OVC027 22/22 A2995 RMK AO2 LTG DSNT W CIG 007V012 SLP137 T02220222 402610183
KLNS 230353Z AUTO 08005KT 10SM OVC008 22/21 A2995 RMK AO2 LTG DSNT W SLP138 T02170211
KLNS 230336Z AUTO 07006KT 10SM BKN009 BKN024 OVC039 22/21 A2994 RMK AO2 CIG 008V015 T02170211
KLNS 230253Z 08004KT 10SM BKN022 OVC027 22/21 A2994 RMK AO2 SLP136 60013 T02170211 51019
KLNS 230235Z 09006KT 10SM BKN025 BKN120 22/21 A2994 RMK AO2 T02170211
KLNS 230153Z 14004KT 10SM FEW120 22/21 A2994 RMK AO2 LTG DSNT NE RAE25 TSE0058 SLP136 P0002 T02170211
KLNS 230104Z 14008KT 10SM -RA FEW014 SCT090 BKN110 23/22 A2991 RMK AO2 LTG DSNT ALQDS TSE0058 P0001 T02330222
KLNS 230053Z 12007G17KT 5SM TSRA BR FEW014 BKN075 OVC110 23/23 A2989 RMK AO2 LTG DSNT ALQDS RAB04 TSB16 PRESFR SLP120 P0011 T02330228
KLNS 230016Z 11005KT 7SM -TSRA FEW025 SCT048 BKN080 23/22 A2990 RMK AO2 LTG DSNT SE-SW RAB04 TSB16 P0001 T02330222
KLNS 222353Z 07004KT 10SM CLR 23/22 A2988 RMK AO2 LTG DSNT SE SLP117 60104 T02330217 10261 20211 53004
KLNS 222253Z 10006KT 10SM FEW037 23/22 A2988 RMK AO2 LTG DSNT NE SLP117 T02280217
KLNS 222201Z 11003KT 10SM FEW065 FEW110 22/21 A2987 RMK AO2 LTG DSNT NE-SE T02170211
KLNS 222153Z 08006KT 10SM VCTS FEW065 FEW080 SCT110 22/21 A2987 RMK AO2 LTG DSNT N-SE RAE53 TSB09E35 SLP113 LTG DSNT SE AND S THUDERSTORMS MOVING SOUTH TO NORTH P0103 T02170211
KLNS 222142Z 06004KT 8SM VCTS -RA SCT019 BKN065 OVC110 22/21 A2988 RMK AO2 LTG DSNT SE TSB09E35 LTG DSNT SE AND S THUDERSTORMS MOVING SOUTH TO NORTH P0103 T02170206
KLNS 222135Z 12007KT 6SM VCTS -RA BR BKN015 OVC110 22/21 A2988 RMK AO2 LTG DSNT NE AND SE TSB09E35 LTG DSNT SE AND S THUDERSTORMS MOVING SOUTH TO NORTH P0103 T02170206
KLNS 222132Z 11006KT 2 1/2SM -TSRA BR BKN017 OVC110 21/20 A2987 RMK AO2 LTG DSNT NE AND SE TSB09 LTG DSNT SE AND S THUDERSTORMS MOVING SOUTH TO NORTH P0102 T02110200
KLNS 222126Z VRB04KT 1/2SM +TSRA FG BKN017 BKN034 OVC110 21/19 A2987 RMK AO2 LTG DSNT NE AND SE TSB09 PRESFR LTG DSNT SE AND S THUDERSTORMS MOVING SOUTH TO NORTH P0102 T02110194
KLNS 222115Z 13009G19KT 1/4SM +TSRA FG BKN014 BKN034 OVC100 23/22 A2991 RMK AO2 LTG DSNT NE-S TSB09 PRESRR LTG DSNT SE AND S THUDERSTORMS MOVING SOUTH TO NORTH P0068 T02280217
KLNS 222110Z 19009KT 3/4SM +TSRA BR SCT018 BKN034 OVC100 24/23 A2990 RMK AO2 LTG DSNT NE-S TSB09 PRESRR LTG DSNT SE AND S THUDERSTORMS MOVING SOUTH TO NORTH P0025 T02440233
KLNS 222107Z 19009KT 1 1/2SM VCTS +RA BR SCT020 BKN034 OVC100 25/23 A2990 RMK AO2 LTG DSNT SE AND S PRESRR P0014 T02500228
KLNS 222101Z 18005KT 5SM VCTS -RA BR FEW022 SCT034 BKN048 25/23 A2988 RMK AO2 LTG DSNT SE P0002 T02500228
KLNS 222053Z 14005KT 10SM -RA SCT027 SCT070 BKN100 25/23 A2987 RMK AO2 LTG DSNT SE AND S RAB48 SLP113 P0000 60001 T02500228 55002
KLNS 222048Z 13008KT 10SM -RA SCT022 SCT032 BKN070 26/22 A2987 RMK AO2 LTG DSNT SE AND S RAB48 P0000
KLNS 222033Z 11007KT 10SM SCT023 BKN029 26/23 A2987 RMK AO2 LTG DSNT S T02610228
KLNS 221953Z 08003KT 10SM SCT110 25/22 A2986 RMK AO2 RAE24 SLP108 P0000 T02500217
KLNS 221853Z 13008KT 10SM -RA FEW013 OVC100 24/22 A2988 RMK AO2 RAE00B17 SLP115 P0001 T02390217
KLNS 221753Z 13011KT 10SM -RA FEW070 OVC095 24/21 A2988 RMK AO2 RAB39 SLP117 P0000 60000 T02440206 10261 20194 57001
KLNS 221653Z 13011KT 10SM SCT020 BKN070 BKN090 26/21 A2988 RMK AO2 SLP117 T02560206
KLNS 221553Z 16007KT 10SM SCT020 BKN050 24/19 A2988 RMK AO2 RAB32E44 SLP117 P0000 T02440194
KLNS 221551Z 16007KT 10SM SCT020 BKN050 24/19 A2988 RMK AO2 RAB32E44 P0000
KLNS 221453Z 17009KT 10SM OVC018 22/19 A2988 RMK AO2 SLP115 T02220189 51029
KLNS 221353Z 16010KT 10SM OVC015 22/19 A2986 RMK AO2 SLP109 T02170189
KLNS 221334Z 17008KT 10SM FEW009 OVC015 21/18 A2985 RMK AO2 T02110183
KLNS 221253Z 17006KT 10SM OVC013 21/19 A2983 RMK AO2 SLP099 T02060189
KLNS 221224Z 16006KT 10SM OVC011 20/19 A2981 RMK AO2 T02000189
KLNS 221153Z 20006KT 10SM OVC006 19/19 A2979 RMK AO2 CIG 005V011 SLP087 60007 70144 T01940189 10228 20183 51043
KLNS 221114Z 18005KT 10SM BKN008 OVC014 19/19 A2977 RMK AO2 T01940189
KLNS 221053Z 18005KT 10SM SCT006 BKN014 OVC019 19/19 A2976 RMK AO2 SLP074 T01940189
KLNS 221032Z 18006KT 7SM OVC005 19/19 A2975 RMK AO2 T01890189
KLNS 221021Z 17005KT 2SM BR OVC006 19/18 A2974 RMK AO2 T01890183
KLNS 220953Z 20005KT 4SM BR BKN009 OVC013 19/18 A2972 RMK AO2 CIG 007V010 SLP061 T01890183
KLNS 220853Z AUTO 22007KT 10SM OVC006 18/18 A2966 RMK AO2 SLP043 60007 T01830178 53025
KLNS 220753Z AUTO 25009KT 7SM OVC005 19/19 A2961 RMK AO2 WSHFT 0735 RAE09B29E52 PRESRR SLP023 P0003 T01940189
KLNS 220738Z AUTO 22011G16KT 2 1/2SM -RA BR BKN005 OVC010 22/22 A2959 RMK AO2 VIS 1 1/2V3 RAE09B29 P0002 T02220217
KLNS 220653Z AUTO 10010KT 4SM -RA BR BKN006 OVC013 22/21 A2956 RMK AO2 SLP009 P0004 T02170211
KLNS 220642Z AUTO 08011KT 3SM -RA BR BKN006 OVC012 21/21 A2956 RMK AO2 P0004 T02110206
KLNS 220623Z AUTO 05007KT 2SM -RA BR OVC008 19/19 A2957 RMK AO2 P0003 T01940194
KLNS 220615Z AUTO 09005KT 3SM -RA BR BKN008 OVC014 20/19 A2958 RMK AO2 P0002 T02000194
KLNS 220553Z AUTO 04012G19KT 5SM -RA BR OVC012 19/18 A2959 RMK AO2 SLP017 P0005 60044 T01890183 10189 20167 56041
KLNS 220505Z AUTO 04014G21KT 3SM -RA BR FEW008 BKN014 OVC020 18/18 A2963 RMK AO2 P0002 T01830178
KLNS 220501Z AUTO 04014G24KT 2 1/2SM RA BR SCT010 BKN014 OVC019 18/18 A2964 RMK AO2 PRESFR P0002 T01830183
KLNS 220453Z AUTO 04018G24KT 3SM +RA BR FEW008 OVC014 18/18 A2965 RMK AO2 SLP037 P0024 T01830178 402280167
KLNS 220437Z AUTO 03017G22KT 4SM -RA BR OVC015 18/18 A2966 RMK AO2 PRESFR P0020 T01830178
KLNS 220424Z AUTO 04017G22KT 2SM +RA BR SCT007 OVC016 18/18 A2968 RMK AO2 PRESFR P0018 T01830178
KLNS 220412Z AUTO 04015G21KT 2 1/2SM +RA BR SCT006 OVC009 19/18 A2970 RMK AO2 P0009 T01890183
KLNS 220353Z AUTO 04015KT 4SM +RA BR OVC009 19/18 A2971 RMK AO2 RAB0255 CIG 007V013 PRESFR SLP059 P0008 T01890183
KLNS 220327Z AUTO 05014KT 4SM -RA BR OVC009 19/18 A2975 RMK AO2 RAB0255 CIG 008V013 P0004 T01890183
KLNS 220253Z 05016G21KT 10SM OVC010 19/18 A2977 RMK AO2 RAE26 SLP079 P0000 60007 T01890178 58029
KLNS 220153Z 06014KT 6SM -RA BR BKN010 OVC013 17/17 A2981 RMK AO2 CIG 008V012 SLP093 P0003 T01720167
KLNS 220120Z 07014G22KT 10SM -RA OVC013 17/16 A2982 RMK AO2 P0002 T01720161
KLNS 220053Z 06014G20KT 7SM RA BKN015 OVC020 17/16 A2984 RMK AO2 PK WND 07026/2359 SLP103 P0004 T01670156
KLNS 220028Z 07013G22KT 10SM -RA BKN016 BKN021 OVC032 17/15 A2985 RMK AO2 PK WND 07026/2359 P0002 T01670150
KLNS 212359Z 07019G26KT 4SM -RA BR FEW009 BKN034 OVC060 17/16 A2986 RMK AO2 PK WND 07026/2359 P0000 T01670156
KLNS 212353Z 06019G25KT 5SM -RA BR BKN012 BKN018 OVC055 17/16 A2986 RMK AO2 SLP109 P0014 60076 T01670156 10194 20167 58023
KLNS 212350Z 06018G24KT 4SM -RA BR SCT009 BKN012 OVC040 17/16 A2986 RMK AO2 P0013
KLNS 212335Z 06015KT 2SM +RA BR OVC012 17/16 A2987 RMK AO2 P0011 T01720161
KLNS 212302Z 07015KT 3SM RA BR OVC014 18/17 A2988 RMK AO2 P0003 T01780167
KLNS 212253Z 06012KT 4SM RA BR OVC016 18/17 A2989 RMK AO2 SLP119 P0006 T01780167
KLNS 212236Z 06014KT 9SM -RA BKN016 OVC020 18/17 A2989 RMK AO2 P0003 T01830167
KLNS 212217Z 07014G20KT 8SM -RA BKN013 OVC021 19/18 A2990 RMK AO2 P0001 T01890178
KLNS 212205Z 07013KT 8SM -RA SCT016 BKN023 OVC036 19/18 A2990 RMK AO2 P0001 T01890178
KLNS 212153Z 06012KT 4SM RA BR FEW010 SCT015 OVC038 19/18 A2991 RMK AO2 SLP126 P0018 T01890178
KLNS 212129Z 06014KT 3SM RA BR FEW008 SCT023 OVC042 19/18 A2992 RMK AO2 P0014 T01890178
KLNS 212125Z 06014KT 2 1/2SM RA BR SCT008 BKN021 OVC047 19/18 A2992 RMK AO2 P0014 T01890183
KLNS 212117Z 07011KT 2SM +RA BR SCT006 BKN042 OVC050 19/18 A2993 RMK AO2 P0011 T01940183
KLNS 212109Z 08013KT 3SM RA BR FEW009 BKN047 OVC060 19/18 A2993 RMK AO2 P0006 T01940183
KLNS 212102Z 07013KT 2 1/2SM RA BR SCT015 BKN047 OVC055 19/19 A2993 RMK AO2 P0003 T01940189
KLNS 212053Z 07012KT 3SM RA BR FEW015 OVC047 19/18 A2993 RMK AO2 SLP132 P0010 60038 T01940183 56020